createdAt,value
2018-09-17T00:00:03.454Z,18.61
2018-09-17T00:02:31.922Z,18.60
2018-09-17T00:05:00.487Z,18.58
2018-09-17T00:07:29.372Z,18.48
2018-09-17T00:09:57.980Z,18.41
2018-09-17T00:12:26.421Z,18.39
2018-09-17T00:14:54.897Z,18.38
2018-09-17T00:17:23.485Z,18.38
2018-09-17T00:19:52.073Z,18.38
2018-09-17T00:22:20.537Z,18.35
2018-09-17T00:24:49.488Z,18.34
2018-09-17T00:27:20.433Z,18.27
2018-09-17T00:29:48.929Z,18.23
2018-09-17T00:32:17.398Z,18.18
2018-09-17T00:34:45.926Z,18.20
2018-09-17T00:37:14.394Z,18.17
2018-09-17T00:39:43.137Z,18.13
2018-09-17T00:42:12.385Z,18.11
2018-09-17T00:44:40.842Z,18.07
2018-09-17T00:47:09.319Z,17.96
2018-09-17T00:49:38.493Z,17.91
2018-09-17T00:52:07.478Z,17.90
2018-09-17T00:54:36.812Z,17.82
2018-09-17T00:57:05.782Z,17.76
2018-09-17T00:59:34.767Z,17.67
2018-09-17T01:02:07.402Z,17.66
2018-09-17T01:04:36.616Z,17.65
2018-09-17T01:07:06.027Z,17.60
2018-09-17T01:09:39.812Z,17.56
2018-09-17T01:12:09.465Z,17.52
2018-09-17T01:14:38.010Z,17.53
2018-09-17T01:17:06.721Z,17.50
2018-09-17T01:19:35.230Z,17.44
2018-09-17T01:22:04.495Z,17.41
2018-09-17T01:24:33.237Z,17.41
2018-09-17T01:27:02.913Z,17.44
2018-09-17T01:29:31.484Z,17.45
2018-09-17T01:32:00.415Z,17.48
2018-09-17T01:34:28.868Z,17.46
2018-09-17T01:36:57.991Z,17.44
2018-09-17T01:39:27.238Z,17.42
2018-09-17T01:41:58.230Z,17.41
2018-09-17T01:44:26.745Z,17.37
2018-09-17T01:46:55.187Z,17.37
2018-09-17T01:49:24.866Z,17.29
2018-09-17T01:51:53.923Z,17.27
2018-09-17T01:54:22.622Z,17.26
2018-09-17T01:56:51.435Z,17.22
2018-09-17T01:59:20.108Z,17.19
2018-09-17T02:01:48.568Z,17.17
2018-09-17T02:04:17.021Z,17.13
2018-09-17T02:06:46.107Z,17.11
2018-09-17T02:09:15.371Z,17.07
2018-09-17T02:11:44.828Z,16.99
2018-09-17T02:14:13.291Z,16.91
2018-09-17T02:16:41.937Z,16.91
2018-09-17T02:19:10.569Z,16.79
2018-09-17T02:21:39.295Z,16.79
2018-09-17T02:24:07.747Z,16.79
2018-09-17T02:26:37.103Z,16.76
2018-09-17T02:29:06.155Z,16.68
2018-09-17T02:31:35.512Z,16.69
2018-09-17T02:34:04.655Z,16.65
2018-09-17T02:36:33.972Z,16.61
2018-09-17T02:39:02.531Z,16.59
2018-09-17T02:41:33.659Z,16.59
2018-09-17T02:44:02.161Z,16.58
2018-09-17T02:46:30.840Z,16.55
2018-09-17T02:48:59.266Z,16.53
2018-09-17T02:51:28.380Z,16.52
2018-09-17T02:53:57.123Z,16.50
2018-09-17T02:56:25.749Z,16.45
2018-09-17T02:58:54.330Z,16.42
2018-09-17T03:01:22.811Z,16.43
2018-09-17T03:03:51.613Z,16.34
2018-09-17T03:06:20.605Z,16.25
2018-09-17T03:08:49.251Z,16.26
2018-09-17T03:11:19.019Z,16.26
2018-09-17T03:13:47.441Z,16.24
2018-09-17T03:16:15.974Z,16.21
2018-09-17T03:18:51.214Z,16.21
2018-09-17T03:21:19.741Z,16.18
2018-09-17T03:23:48.625Z,16.17
2018-09-17T03:26:18.129Z,16.17
2018-09-17T03:28:47.146Z,16.16
2018-09-17T03:31:16.252Z,16.16
2018-09-17T03:33:44.703Z,16.09
2018-09-17T03:36:14.142Z,16.05
2018-09-17T03:38:47.669Z,16.06
2018-09-17T03:41:16.905Z,15.96
2018-09-17T03:43:48.565Z,16.09
2018-09-17T03:46:17.824Z,16.08
2018-09-17T03:48:46.940Z,16.06
2018-09-17T03:51:15.742Z,16.04
2018-09-17T03:53:44.339Z,16.03
2018-09-17T03:56:12.782Z,16.00
2018-09-17T03:58:41.419Z,15.99
2018-09-17T04:01:10.632Z,15.94
2018-09-17T04:03:39.040Z,15.95
2018-09-17T04:06:08.240Z,15.94
2018-09-17T04:08:37.027Z,15.94
2018-09-17T04:11:06.053Z,15.95
2018-09-17T04:13:34.515Z,15.95
2018-09-17T04:16:03.998Z,15.96
2018-09-17T04:18:32.412Z,15.92
2018-09-17T04:21:01.450Z,15.89
2018-09-17T04:23:35.984Z,15.87
2018-09-17T04:26:08.896Z,15.80
2018-09-17T04:28:37.935Z,15.76
2018-09-17T04:31:07.048Z,15.75
2018-09-17T04:33:40.931Z,15.65
2018-09-17T04:36:10.712Z,15.62
2018-09-17T04:38:39.955Z,15.65
2018-09-17T04:41:08.529Z,15.62
2018-09-17T04:43:36.911Z,15.62
2018-09-17T04:46:05.570Z,15.58
2018-09-17T04:48:34.789Z,15.49
2018-09-17T04:51:04.053Z,15.46
2018-09-17T04:53:32.548Z,15.50
2018-09-17T04:56:01.440Z,15.53
2018-09-17T04:58:30.265Z,15.51
2018-09-17T05:00:58.637Z,15.52
2018-09-17T05:03:27.238Z,15.48
2018-09-17T05:05:56.373Z,15.43
2018-09-17T05:08:24.839Z,15.40
2018-09-17T05:10:53.967Z,15.39
2018-09-17T05:13:22.580Z,15.34
2018-09-17T05:15:51.628Z,15.33
2018-09-17T05:18:20.120Z,15.28
2018-09-17T05:20:48.579Z,15.18
2018-09-17T05:23:17.051Z,15.19
2018-09-17T05:25:45.568Z,15.21
2018-09-17T05:28:13.982Z,15.27
2018-09-17T05:30:42.500Z,15.30
2018-09-17T05:33:11.364Z,15.33
2018-09-17T05:35:39.781Z,15.36
2018-09-17T05:38:08.308Z,15.39
2018-09-17T05:40:36.904Z,15.41
2018-09-17T05:43:05.494Z,15.46
2018-09-17T05:45:34.713Z,15.67
2018-09-17T05:48:03.199Z,16.06
2018-09-17T05:50:32.388Z,16.54
2018-09-17T05:53:00.911Z,17.00
2018-09-17T05:55:30.973Z,17.53
2018-09-17T05:57:59.962Z,18.08
2018-09-17T06:00:29.232Z,18.13
2018-09-17T06:02:58.484Z,17.81
2018-09-17T06:05:27.402Z,17.47
2018-09-17T06:07:55.939Z,17.15
2018-09-17T06:10:24.419Z,16.93
2018-09-17T06:12:53.568Z,16.86
2018-09-17T06:15:26.652Z,16.77
2018-09-17T06:17:55.060Z,16.78
2018-09-17T06:20:24.409Z,16.83
2018-09-17T06:22:53.459Z,16.94
2018-09-17T06:25:21.968Z,17.18
2018-09-17T06:27:50.542Z,17.42
2018-09-17T06:30:19.188Z,17.51
2018-09-17T06:32:47.592Z,17.57
2018-09-17T06:35:16.236Z,17.42
2018-09-17T06:37:44.677Z,17.52
2018-09-17T06:40:13.252Z,17.55
2018-09-17T06:42:42.558Z,17.68
2018-09-17T06:45:11.723Z,18.25
2018-09-17T06:47:40.153Z,18.93
2018-09-17T06:50:09.349Z,19.39
2018-09-17T06:52:38.578Z,20.24
2018-09-17T06:55:07.002Z,21.85
2018-09-17T06:57:36.135Z,23.51
2018-09-17T07:00:05.180Z,24.97
2018-09-17T07:02:33.984Z,25.93
2018-09-17T07:05:02.455Z,27.00
2018-09-17T07:07:31.046Z,27.78
2018-09-17T07:09:59.530Z,28.40
2018-09-17T07:12:28.356Z,29.15
2018-09-17T07:14:56.876Z,29.78
2018-09-17T07:17:25.542Z,30.01
2018-09-17T07:19:54.327Z,30.41
2018-09-17T07:22:22.750Z,31.09
2018-09-17T07:24:51.247Z,31.69
2018-09-17T07:27:20.322Z,32.27
2018-09-17T07:29:49.040Z,32.78
2018-09-17T07:32:17.746Z,33.08
2018-09-17T07:34:46.957Z,33.47
2018-09-17T07:37:15.498Z,33.71
2018-09-17T07:39:44.221Z,34.00
2018-09-17T07:42:12.943Z,34.59
2018-09-17T07:44:42.190Z,35.01
2018-09-17T07:47:12.346Z,35.34
2018-09-17T07:49:41.490Z,35.74
2018-09-17T07:52:09.995Z,35.94
2018-09-17T07:54:38.434Z,36.08
2018-09-17T07:57:06.928Z,35.95
2018-09-17T07:59:35.459Z,35.55
2018-09-17T08:02:04.446Z,36.03
2018-09-17T08:04:33.517Z,36.44
2018-09-17T08:07:02.145Z,37.16
2018-09-17T08:09:30.631Z,38.00
2018-09-17T08:11:59.155Z,38.68
2018-09-17T08:14:27.648Z,38.73
2018-09-17T08:16:57.063Z,39.11
2018-09-17T08:19:25.569Z,39.65
2018-09-17T08:21:54.069Z,40.24
2018-09-17T08:24:22.890Z,40.49
2018-09-17T08:26:51.384Z,40.89
2018-09-17T08:29:19.965Z,40.96
2018-09-17T08:31:48.976Z,41.26
2018-09-17T08:34:17.469Z,41.32
2018-09-17T08:36:46.544Z,41.45
2018-09-17T08:39:15.725Z,41.74
2018-09-17T08:41:45.148Z,42.00
2018-09-17T08:44:13.711Z,42.22
2018-09-17T08:46:42.225Z,42.95
2018-09-17T08:49:10.756Z,43.44
2018-09-17T08:51:40.117Z,43.51
2018-09-17T08:54:08.719Z,43.77
2018-09-17T08:56:42.393Z,43.73
2018-09-17T08:59:16.678Z,44.09
2018-09-17T09:01:50.335Z,44.42
2018-09-17T09:04:24.123Z,44.48
2018-09-17T09:06:59.578Z,44.72
2018-09-17T09:09:28.132Z,44.48
2018-09-17T09:12:01.632Z,44.95
2018-09-17T09:14:39.654Z,45.20
2018-09-17T09:17:09.456Z,44.35
2018-09-17T09:19:38.331Z,44.99
2018-09-17T09:22:07.128Z,44.43
2018-09-17T09:24:36.974Z,44.68
2018-09-17T09:27:05.444Z,44.32
2018-09-17T09:29:33.916Z,44.75
2018-09-17T09:32:02.969Z,44.95
2018-09-17T09:34:31.886Z,45.88
2018-09-17T09:37:00.633Z,46.04
2018-09-17T09:39:29.812Z,45.94
2018-09-17T09:41:59.438Z,46.21
2018-09-17T09:44:28.059Z,46.71
2018-09-17T09:46:56.620Z,46.83
2018-09-17T09:49:25.167Z,47.33
2018-09-17T09:51:53.691Z,47.38
2018-09-17T09:54:22.441Z,47.37
2018-09-17T09:56:51.659Z,47.37
2018-09-17T09:59:20.155Z,47.43
2018-09-17T10:04:02.250Z,47.44
2018-09-17T10:06:30.763Z,46.44
2018-09-17T10:09:04.524Z,46.47
2018-09-17T10:11:38.425Z,46.71
2018-09-17T10:14:12.790Z,46.81
2018-09-17T10:16:45.748Z,46.31
2018-09-17T10:19:20.763Z,47.02
2018-09-17T10:21:49.325Z,47.44
2018-09-17T10:24:18.216Z,47.95
2018-09-17T10:26:47.733Z,48.08
2018-09-17T10:29:16.925Z,48.22
2018-09-17T10:31:45.738Z,49.18
2018-09-17T10:34:14.527Z,47.53
2018-09-17T10:36:43.712Z,45.75
2018-09-17T10:39:13.946Z,46.30
2018-09-17T10:41:42.887Z,47.30
2018-09-17T10:44:11.349Z,47.58
2018-09-17T10:46:40.607Z,48.01
2018-09-17T10:49:09.592Z,48.31
2018-09-17T10:51:39.091Z,48.37
2018-09-17T10:54:07.630Z,48.79
2018-09-17T10:56:36.655Z,49.31
2018-09-17T10:59:05.950Z,50.07
2018-09-17T11:01:34.479Z,49.82
2018-09-17T11:04:09.338Z,49.98
2018-09-17T11:06:38.054Z,50.18
2018-09-17T11:09:09.101Z,47.09
2018-09-17T11:11:37.593Z,46.94
2018-09-17T11:14:06.312Z,47.45
2018-09-17T11:16:34.772Z,48.49
2018-09-17T11:19:03.807Z,48.54
2018-09-17T11:21:32.334Z,49.67
2018-09-17T11:24:00.891Z,47.01
2018-09-17T11:26:29.507Z,47.58
2018-09-17T11:28:58.742Z,48.64
2018-09-17T11:31:27.953Z,49.02
2018-09-17T11:33:57.931Z,49.63
2018-09-17T11:36:26.730Z,49.58
2018-09-17T11:38:55.314Z,49.22
2018-09-17T11:41:23.907Z,49.66
2018-09-17T11:43:53.172Z,50.11
2018-09-17T11:46:22.464Z,49.48
2018-09-17T11:48:50.962Z,49.62
2018-09-17T11:51:19.370Z,48.26
2018-09-17T11:53:47.968Z,48.46
2018-09-17T11:56:17.177Z,49.15
2018-09-17T11:58:46.845Z,48.57
2018-09-17T12:01:21.364Z,47.41
2018-09-17T12:03:55.106Z,47.03
2018-09-17T12:06:36.892Z,47.97
2018-09-17T12:09:08.101Z,48.77
2018-09-17T12:11:36.594Z,49.81
2018-09-17T12:14:05.085Z,48.89
2018-09-17T12:16:33.604Z,48.54
2018-09-17T12:19:02.692Z,49.16
2018-09-17T12:21:31.378Z,47.83
2018-09-17T12:23:59.920Z,46.67
2018-09-17T12:26:28.319Z,45.62
2018-09-17T12:28:57.187Z,45.69
2018-09-17T12:31:26.093Z,46.70
2018-09-17T12:33:54.882Z,48.02
2018-09-17T12:36:23.273Z,48.42
2018-09-17T12:38:52.211Z,48.44
2018-09-17T12:41:21.528Z,47.95
2018-09-17T12:43:50.799Z,48.94
2018-09-17T12:46:19.841Z,49.56
2018-09-17T12:48:48.329Z,49.86
2018-09-17T12:51:16.749Z,50.27
2018-09-17T12:53:46.018Z,49.30
2018-09-17T12:56:14.484Z,49.34
2018-09-17T12:58:43.030Z,48.34
2018-09-17T13:01:12.653Z,48.04
2018-09-17T13:03:41.181Z,47.26
2018-09-17T13:06:09.767Z,47.80
2018-09-17T13:08:38.377Z,47.28
2018-09-17T13:11:06.831Z,47.39
2018-09-17T13:13:38.040Z,47.19
2018-09-17T13:16:08.122Z,46.21
2018-09-17T13:18:37.585Z,43.94
2018-09-17T13:21:06.108Z,41.92
2018-09-17T13:23:34.627Z,40.63
2018-09-17T13:26:03.152Z,39.68
2018-09-17T13:28:32.598Z,38.46
2018-09-17T13:31:01.532Z,38.46
2018-09-17T13:33:30.033Z,37.83
2018-09-17T13:35:58.646Z,37.72
2018-09-17T13:38:27.414Z,37.91
2018-09-17T13:40:56.609Z,38.12
2018-09-17T13:43:25.151Z,38.33
2018-09-17T13:45:54.223Z,38.34
2018-09-17T13:48:23.427Z,38.53
2018-09-17T13:50:52.740Z,38.81
2018-09-17T13:53:21.314Z,38.82
2018-09-17T13:55:50.332Z,38.92
2018-09-17T13:58:18.890Z,38.86
2018-09-17T14:00:47.692Z,39.53
2018-09-17T14:03:16.309Z,39.72
2018-09-17T14:05:45.495Z,39.50
2018-09-17T14:08:14.947Z,39.80
2018-09-17T14:10:43.534Z,39.88
2018-09-17T14:13:12.583Z,39.56
2018-09-17T14:15:45.209Z,38.95
2018-09-17T14:18:14.416Z,38.14
2018-09-17T14:20:43.002Z,37.92
2018-09-17T14:23:11.837Z,38.39
2018-09-17T14:25:41.115Z,38.27
2018-09-17T14:28:09.723Z,37.86
2018-09-17T14:30:38.386Z,38.29
2018-09-17T14:33:13.175Z,38.76
2018-09-17T14:35:41.717Z,38.76
2018-09-17T14:38:10.156Z,39.15
2018-09-17T14:40:39.819Z,38.98
2018-09-17T14:43:08.769Z,39.14
2018-09-17T14:45:37.253Z,39.14
2018-09-17T14:48:05.817Z,38.80
2018-09-17T14:50:34.699Z,38.53
2018-09-17T14:53:03.862Z,38.06
2018-09-17T14:55:33.130Z,37.61
2018-09-17T14:58:01.667Z,36.70
2018-09-17T15:00:30.808Z,36.43
2018-09-17T15:02:59.314Z,36.25
2018-09-17T15:05:28.096Z,35.76
2018-09-17T15:07:56.631Z,35.34
2018-09-17T15:10:25.756Z,35.02
2018-09-17T15:12:54.168Z,34.84
2018-09-17T15:15:23.280Z,34.70
2018-09-17T15:17:51.729Z,34.55
2018-09-17T15:20:20.899Z,34.34
2018-09-17T15:22:49.387Z,34.07
2018-09-17T15:25:17.871Z,33.98
2018-09-17T15:27:46.566Z,33.80
2018-09-17T15:30:15.806Z,33.33
2018-09-17T15:32:45.516Z,33.11
2018-09-17T15:35:14.162Z,32.72
2018-09-17T15:37:42.691Z,32.30
2018-09-17T15:40:11.283Z,32.29
2018-09-17T15:42:40.047Z,32.29
2018-09-17T15:45:09.502Z,32.32
2018-09-17T15:47:37.986Z,32.28
2018-09-17T15:50:06.619Z,32.04
2018-09-17T15:52:36.122Z,31.86
2018-09-17T15:55:05.357Z,31.54
2018-09-17T15:57:34.295Z,31.56
2018-09-17T16:00:02.769Z,31.56
2018-09-17T16:02:31.278Z,31.19
2018-09-17T16:04:59.750Z,31.32
2018-09-17T16:07:28.248Z,31.19
2018-09-17T16:09:56.764Z,31.17
2018-09-17T16:12:25.357Z,31.06
2018-09-17T16:14:53.886Z,31.04
2018-09-17T16:17:22.304Z,31.25
2018-09-17T16:19:51.043Z,31.03
2018-09-17T16:22:19.476Z,31.15
2018-09-17T16:24:48.457Z,30.93
2018-09-17T16:27:16.900Z,30.76
2018-09-17T16:29:46.155Z,30.61
2018-09-17T16:32:15.852Z,30.52
2018-09-17T16:34:44.409Z,30.33
2018-09-17T16:37:14.006Z,30.33
2018-09-17T16:39:42.439Z,30.30
2018-09-17T16:42:10.918Z,30.21
2018-09-17T16:44:40.176Z,30.12
2018-09-17T16:47:08.848Z,30.08
2018-09-17T16:49:37.466Z,30.05
2018-09-17T16:52:06.096Z,29.97
2018-09-17T16:54:34.610Z,29.82
2018-09-17T16:57:04.047Z,29.67
2018-09-17T16:59:33.309Z,29.59
2018-09-17T17:02:02.362Z,29.53
2018-09-17T17:04:31.739Z,29.47
2018-09-17T17:07:00.861Z,29.36
2018-09-17T17:09:37.061Z,29.22
2018-09-17T17:12:05.568Z,28.93
2018-09-17T17:14:34.038Z,28.72
2018-09-17T17:17:02.577Z,28.54
2018-09-17T17:19:31.050Z,28.45
2018-09-17T17:22:00.376Z,28.39
2018-09-17T17:24:28.879Z,28.29
2018-09-17T17:26:57.403Z,28.25
2018-09-17T17:29:26.013Z,28.25
2018-09-17T17:31:54.666Z,28.19
2018-09-17T17:34:23.556Z,28.12
2018-09-17T17:36:51.963Z,28.00
2018-09-17T17:39:21.266Z,27.89
2018-09-17T17:41:50.300Z,27.83
2018-09-17T17:44:19.695Z,27.75
2018-09-17T17:46:48.912Z,27.67
2018-09-17T17:49:18.151Z,27.54
2018-09-17T17:51:47.584Z,27.47
2018-09-17T17:54:16.791Z,27.41
2018-09-17T17:56:45.305Z,27.25
2018-09-17T17:59:14.175Z,27.17
2018-09-17T18:01:43.531Z,27.12
2018-09-17T18:04:12.134Z,27.02
2018-09-17T18:06:40.892Z,27.20
2018-09-17T18:09:10.678Z,26.96
2018-09-17T18:11:39.608Z,26.83
2018-09-17T18:14:08.229Z,26.73
2018-09-17T18:16:37.484Z,26.59
2018-09-17T18:19:06.127Z,26.47
2018-09-17T18:21:34.719Z,26.34
2018-09-17T18:24:03.885Z,26.24
2018-09-17T18:26:33.008Z,26.15
2018-09-17T18:29:02.091Z,26.10
2018-09-17T18:31:31.402Z,25.99
2018-09-17T18:34:00.749Z,25.86
2018-09-17T18:36:29.232Z,25.78
2018-09-17T18:38:57.960Z,25.65
2018-09-17T18:41:27.210Z,25.46
2018-09-17T18:43:55.731Z,25.29
2018-09-17T18:46:25.048Z,25.23
2018-09-17T18:48:53.549Z,25.11
2018-09-17T18:51:22.217Z,25.10
2018-09-17T18:53:51.364Z,24.99
2018-09-17T18:56:20.867Z,24.96
2018-09-17T18:58:50.021Z,24.97
2018-09-17T19:01:19.432Z,24.93
2018-09-17T19:03:48.781Z,24.89
2018-09-17T19:06:17.390Z,24.81
2018-09-17T19:08:46.112Z,24.73
2018-09-17T19:11:15.625Z,24.58
2018-09-17T19:13:48.457Z,24.57
2018-09-17T19:16:21.098Z,24.50
2018-09-17T19:18:50.250Z,24.38
2018-09-17T19:21:19.014Z,24.27
2018-09-17T19:23:52.726Z,24.49
2018-09-17T19:26:21.654Z,24.26
2018-09-17T19:28:55.245Z,24.07
2018-09-17T19:31:23.834Z,23.98
2018-09-17T19:33:53.167Z,23.91
2018-09-17T19:36:22.566Z,23.81
2018-09-17T19:38:56.894Z,23.74
2018-09-17T19:41:26.196Z,23.72
2018-09-17T19:43:54.809Z,23.59
2018-09-17T19:46:23.284Z,23.27
2018-09-17T19:48:52.755Z,23.44
2018-09-17T19:51:26.813Z,23.39
2018-09-17T19:53:55.775Z,23.29
2018-09-17T19:56:24.314Z,23.20
2018-09-17T19:58:58.721Z,23.10
2018-09-17T20:01:27.803Z,23.02
2018-09-17T20:03:56.435Z,22.92
2018-09-17T20:06:26.761Z,22.87
2018-09-17T20:08:55.426Z,22.86
2018-09-17T20:11:24.792Z,22.80
2018-09-17T20:13:54.192Z,22.78
2018-09-17T20:16:22.735Z,22.75
2018-09-17T20:18:51.395Z,22.66
2018-09-17T20:21:20.624Z,22.56
2018-09-17T20:23:49.883Z,22.52
2018-09-17T20:26:18.405Z,22.46
2018-09-17T20:28:48.230Z,22.39
2018-09-17T20:31:17.318Z,22.37
2018-09-17T20:33:45.899Z,22.31
2018-09-17T20:36:15.159Z,22.24
2018-09-17T20:38:43.719Z,22.19
2018-09-17T20:41:12.201Z,22.13
2018-09-17T20:43:41.245Z,22.04
2018-09-17T20:46:10.567Z,22.00
2018-09-17T20:48:39.680Z,21.91
2018-09-17T20:51:08.774Z,21.82
2018-09-17T20:53:37.996Z,21.79
2018-09-17T20:56:07.843Z,21.75
2018-09-17T20:58:36.933Z,21.72
2018-09-17T21:01:05.528Z,21.68
2018-09-17T21:03:35.069Z,21.63
2018-09-17T21:06:04.371Z,21.59
2018-09-17T21:08:33.547Z,21.57
2018-09-17T21:11:03.965Z,21.52
2018-09-17T21:13:33.070Z,21.49
2018-09-17T21:16:01.781Z,21.40
2018-09-17T21:18:30.484Z,21.22
2018-09-17T21:21:00.126Z,21.23
2018-09-17T21:23:29.304Z,21.17
2018-09-17T21:25:58.340Z,21.15
2018-09-17T21:28:27.387Z,21.11
2018-09-17T21:30:55.911Z,21.09
2018-09-17T21:33:24.349Z,21.07
2018-09-17T21:35:53.255Z,21.02
2018-09-17T21:38:22.589Z,20.98
2018-09-17T21:40:52.911Z,20.92
2018-09-17T21:43:22.263Z,20.92
2018-09-17T21:45:50.658Z,20.85
2018-09-17T21:48:19.207Z,20.75
2018-09-17T21:50:50.390Z,20.74
2018-09-17T21:53:18.927Z,20.72
2018-09-17T21:55:47.481Z,20.65
2018-09-17T21:58:16.447Z,20.66
2018-09-17T22:00:50.844Z,20.57
2018-09-17T22:03:20.194Z,20.52
2018-09-17T22:05:48.764Z,20.44
2018-09-17T22:08:17.290Z,20.42
2018-09-17T22:10:45.764Z,20.40
2018-09-17T22:13:14.892Z,20.37
2018-09-17T22:15:44.063Z,20.28
2018-09-17T22:18:12.525Z,20.22
2018-09-17T22:20:42.095Z,20.20
2018-09-17T22:23:11.157Z,20.14
2018-09-17T22:25:39.675Z,19.83
2018-09-17T22:28:08.304Z,20.04
2018-09-17T22:30:37.086Z,20.01
2018-09-17T22:33:06.084Z,19.95
2018-09-17T22:35:34.628Z,19.88
2018-09-17T22:38:03.162Z,19.89
2018-09-17T22:40:32.961Z,19.84
2018-09-17T22:43:01.887Z,19.84
2018-09-17T22:45:30.718Z,19.82
2018-09-17T22:47:59.187Z,19.82
2018-09-17T22:50:27.708Z,19.79
2018-09-17T22:52:56.143Z,19.73
2018-09-17T22:55:24.816Z,19.65
2018-09-17T22:57:53.284Z,19.60
2018-09-17T23:00:21.819Z,19.55
2018-09-17T23:02:50.308Z,19.50
2018-09-17T23:05:19.573Z,19.43
2018-09-17T23:07:47.992Z,19.43
2018-09-17T23:10:17.258Z,19.42
2018-09-17T23:12:45.925Z,19.36
2018-09-17T23:15:14.390Z,19.38
2018-09-17T23:17:42.844Z,19.33
2018-09-17T23:20:11.335Z,19.29
2018-09-17T23:22:39.866Z,19.23
2018-09-17T23:25:08.428Z,19.21
2018-09-17T23:27:36.917Z,19.26
2018-09-17T23:30:06.297Z,19.25
2018-09-17T23:32:35.451Z,19.23
2018-09-17T23:35:04.674Z,19.17
2018-09-17T23:37:33.787Z,19.11
2018-09-17T23:40:02.916Z,19.11
2018-09-17T23:42:32.259Z,19.06
2018-09-17T23:45:01.426Z,19.01
2018-09-17T23:47:30.808Z,19.00
2018-09-17T23:49:59.289Z,18.94
2018-09-17T23:52:28.065Z,18.93
2018-09-17T23:54:56.824Z,18.81
2018-09-17T23:57:25.906Z,18.79
2018-09-17T23:59:54.528Z,18.81
